Time;durP1;ratioP1;P1;durP2;ratioP2;P2;SDS_P1;SDS_P2;PMS_P1;PMS_P2;Temp;Humidity;BMP_temperature;BMP_pressure;BME280_temperature;BME280_humidity;BME280_pressure;Samples;Min_cycle;Max_cycle;Signal;HPM_P1;HPM_P2
2024/02/26 00:01:04;;;;;;;30.65;22.38;;;3.50;99.90;;;;;;7362157;19;20026;-66
2024/02/26 00:03:42;;;;;;;28.02;19.67;;;3.50;99.90;;;;;;7367914;19;20041;-66
2024/02/26 00:06:08;;;;;;;25.60;20.85;;;3.60;99.90;;;;;;7363553;19;20033;-66
2024/02/26 00:08:35;;;;;;;24.33;19.00;;;3.50;99.90;;;;;;7370049;19;20033;-66
2024/02/26 00:11:01;;;;;;;24.02;17.77;;;3.70;99.90;;;;;;7370554;19;20545;-65
2024/02/26 00:13:27;;;;;;;24.65;18.05;;;3.60;99.90;;;;;;7363692;19;20006;-65
2024/02/26 00:15:54;;;;;;;28.75;20.42;;;3.60;99.90;;;;;;7371194;19;20030;-65
2024/02/26 00:18:21;;;;;;;24.30;16.75;;;3.60;99.90;;;;;;7367386;19;20100;-65
2024/02/26 00:20:50;;;;;;;23.98;17.35;;;3.60;99.90;;;;;;7369117;19;20018;-64
2024/02/26 00:23:17;;;;;;;25.30;16.50;;;3.70;99.90;;;;;;7374164;19;20031;-65
2024/02/26 00:25:44;;;;;;;26.45;18.88;;;3.70;99.90;;;;;;7373241;19;20018;-65
2024/02/26 00:28:13;;;;;;;30.20;20.90;;;3.70;99.90;;;;;;7374152;19;20858;-65
2024/02/26 00:30:40;;;;;;;30.98;22.33;;;3.70;99.90;;;;;;7372779;19;20038;-65
2024/02/26 00:33:08;;;;;;;27.23;20.30;;;3.70;99.90;;;;;;7373668;19;20011;-66
2024/02/26 00:35:35;;;;;;;29.60;21.10;;;3.70;99.90;;;;;;7374687;19;20478;-65
2024/02/26 00:38:03;;;;;;;27.58;20.70;;;3.70;99.90;;;;;;7373758;19;20017;-64
2024/02/26 00:40:30;;;;;;;23.98;18.48;;;3.70;99.90;;;;;;7378215;19;20038;-65
2024/02/26 00:42:58;;;;;;;25.75;18.58;;;3.70;99.90;;;;;;7372273;19;20105;-64
2024/02/26 00:45:27;;;;;;;26.10;18.30;;;3.80;99.90;;;;;;7371572;19;21114;-66
2024/02/26 00:47:55;;;;;;;25.08;17.48;;;3.70;99.90;;;;;;7373298;19;20021;-66
2024/02/26 00:50:23;;;;;;;23.73;18.40;;;3.70;99.90;;;;;;7368975;19;20011;-65
2024/02/26 00:52:52;;;;;;;26.25;19.55;;;3.70;99.90;;;;;;7377373;19;20014;-64
2024/02/26 00:55:21;;;;;;;25.75;18.10;;;3.70;99.90;;;;;;7369024;19;20022;-66
2024/02/26 00:57:48;;;;;;;29.98;20.65;;;3.70;99.90;;;;;;7375543;19;20787;-66
2024/02/26 01:00:15;;;;;;;26.00;18.50;;;3.70;99.90;;;;;;7369151;19;20025;-66
2024/02/26 01:02:43;;;;;;;26.00;19.25;;;3.70;99.90;;;;;;7375504;19;20589;-64
2024/02/26 01:05:10;;;;;;;30.05;22.77;;;3.70;99.90;;;;;;7377731;19;20022;-64
2024/02/26 01:07:37;;;;;;;24.60;18.98;;;3.70;99.90;;;;;;7372614;19;20015;-65
2024/02/26 01:10:07;;;;;;;27.35;19.05;;;3.60;99.90;;;;;;7370405;19;20014;-65
2024/02/26 01:12:35;;;;;;;28.30;21.50;;;3.60;99.90;;;;;;7373777;19;20026;-65
2024/02/26 01:15:03;;;;;;;26.02;19.85;;;3.60;99.90;;;;;;7373686;19;20018;-66
2024/02/26 01:17:30;;;;;;;25.02;18.63;;;3.60;99.90;;;;;;7373918;19;20019;-66
2024/02/26 01:19:57;;;;;;;32.08;20.77;;;3.60;99.90;;;;;;7367059;19;20609;-65
2024/02/26 01:22:26;;;;;;;31.67;23.35;;;3.60;99.90;;;;;;7379837;19;20096;-66
2024/02/26 01:24:52;;;;;;;29.58;19.25;;;3.60;99.90;;;;;;7371010;19;20014;-66
2024/02/26 01:27:26;;;;;;;27.55;20.30;;;3.60;99.90;;;;;;7374763;19;20018;-66
2024/02/26 01:29:53;;;;;;;31.30;22.75;;;3.60;99.90;;;;;;7369422;19;20010;-66
2024/02/26 01:32:22;;;;;;;33.95;20.42;;;3.70;99.90;;;;;;7373458;19;20019;-65
2024/02/26 01:34:51;;;;;;;31.10;20.00;;;3.60;99.90;;;;;;7365396;19;20037;-65
2024/02/26 01:37:19;;;;;;;30.30;21.40;;;3.60;99.90;;;;;;7371603;19;20022;-66
2024/02/26 01:39:46;;;;;;;27.88;19.20;;;3.60;99.90;;;;;;7366286;19;20025;-66
2024/02/26 01:42:14;;;;;;;26.35;19.50;;;3.60;99.90;;;;;;7372771;19;20019;-66
2024/02/26 01:44:42;;;;;;;31.20;22.45;;;3.70;99.90;;;;;;7368730;19;20021;-66
2024/02/26 01:47:12;;;;;;;32.25;21.60;;;3.60;99.90;;;;;;7370633;19;20018;-66
2024/02/26 01:49:40;;;;;;;29.38;20.33;;;3.60;99.90;;;;;;7372364;19;20014;-66
2024/02/26 01:52:10;;;;;;;31.08;21.08;;;3.60;99.90;;;;;;7368832;19;20010;-67
2024/02/26 01:54:38;;;;;;;28.80;20.38;;;3.60;99.90;;;;;;7374591;19;20022;-67
2024/02/26 01:57:07;;;;;;;31.95;20.95;;;3.60;99.90;;;;;;7366318;19;21107;-65
2024/02/26 01:59:36;;;;;;;30.73;20.63;;;3.60;99.90;;;;;;7364779;19;20019;-70
2024/02/26 02:02:07;;;;;;;34.50;21.65;;;3.60;99.90;;;;;;7372277;19;20018;-66
2024/02/26 02:04:36;;;;;;;28.85;19.02;;;3.60;99.90;;;;;;7363595;19;20015;-65
2024/02/26 02:07:05;;;;;;;32.22;21.23;;;3.60;99.90;;;;;;7367179;19;20014;-66
2024/02/26 02:09:32;;;;;;;33.00;21.42;;;3.60;99.90;;;;;;7368734;19;20014;-66
2024/02/26 02:11:59;;;;;;;35.00;23.27;;;3.60;99.90;;;;;;7365842;19;20018;-66
2024/02/26 02:14:25;;;;;;;41.45;23.77;;;3.60;99.90;;;;;;7362450;19;20022;-66
2024/02/26 02:16:52;;;;;;;39.25;23.52;;;3.60;99.90;;;;;;7372304;19;20037;-66
2024/02/26 02:19:19;;;;;;;42.13;26.08;;;3.60;99.90;;;;;;7371248;19;20471;-66
2024/02/26 02:21:46;;;;;;;41.83;23.98;;;3.60;99.90;;;;;;7368998;19;20032;-66
2024/02/26 02:24:12;;;;;;;44.88;25.70;;;3.50;99.90;;;;;;7360871;19;20485;-67
2024/02/26 02:26:39;;;;;;;46.92;24.85;;;3.60;99.90;;;;;;7370294;19;20102;-66
2024/02/26 02:29:06;;;;;;;46.10;25.83;;;3.60;99.90;;;;;;7361432;19;21811;-66
2024/02/26 02:31:34;;;;;;;46.25;26.50;;;3.60;99.90;;;;;;7375436;19;20018;-66
2024/02/26 02:34:03;;;;;;;46.25;24.70;;;3.50;99.90;;;;;;7361185;19;20563;-66
2024/02/26 02:36:30;;;;;;;49.83;26.15;;;3.50;99.90;;;;;;7373516;19;20025;-67
2024/02/26 02:38:57;;;;;;;51.47;27.90;;;3.50;99.90;;;;;;7368011;19;20026;-66
2024/02/26 02:41:26;;;;;;;51.63;26.25;;;3.60;99.90;;;;;;7367472;19;20130;-67
2024/02/26 02:43:53;;;;;;;51.65;26.00;;;3.60;99.90;;;;;;7365140;19;20019;-67
2024/02/26 02:46:21;;;;;;;53.85;29.73;;;3.60;99.90;;;;;;7366467;19;20478;-66
2024/02/26 02:48:47;;;;;;;53.28;28.83;;;3.50;99.90;;;;;;7365163;19;20041;-64
2024/02/26 02:51:14;;;;;;;59.10;30.95;;;3.50;99.90;;;;;;7369525;19;20014;-67
2024/02/26 02:53:40;;;;;;;58.00;30.02;;;3.60;99.90;;;;;;7366681;19;20011;-64
2024/02/26 02:56:07;;;;;;;53.30;29.13;;;3.50;99.90;;;;;;7372890;19;20018;-65
2024/02/26 02:58:33;;;;;;;57.63;27.92;;;3.60;99.90;;;;;;7361759;19;20371;-64
2024/02/26 03:01:00;;;;;;;59.42;31.60;;;3.60;99.90;;;;;;7367789;19;20022;-65
2024/02/26 03:03:28;;;;;;;60.80;31.45;;;3.60;99.90;;;;;;7369515;19;20116;-65
2024/02/26 03:05:56;;;;;;;63.95;31.77;;;3.60;99.90;;;;;;7370058;19;20502;-66
2024/02/26 03:08:25;;;;;;;65.75;31.30;;;3.60;99.90;;;;;;7368905;19;20018;-66
2024/02/26 03:10:52;;;;;;;67.38;33.83;;;3.60;99.90;;;;;;7365053;19;20014;-66
2024/02/26 03:13:21;;;;;;;64.95;35.05;;;3.60;99.90;;;;;;7370232;19;20011;-65
2024/02/26 03:15:49;;;;;;;71.03;35.50;;;3.60;99.90;;;;;;7369986;19;20440;-66
2024/02/26 03:18:16;;;;;;;65.47;36.38;;;3.60;99.90;;;;;;7357966;19;20014;-66
2024/02/26 03:20:46;;;;;;;72.22;34.78;;;3.70;99.90;;;;;;7369924;19;21356;-66
2024/02/26 03:23:16;;;;;;;73.75;36.22;;;3.70;99.90;;;;;;7368794;19;20018;-65
2024/02/26 03:25:47;;;;;;;79.95;36.60;;;3.70;99.90;;;;;;7371514;19;20025;-65
2024/02/26 03:28:15;;;;;;;78.80;35.67;;;3.70;99.90;;;;;;7364166;19;20031;-67
2024/02/26 03:30:43;;;;;;;78.18;37.83;;;3.70;99.90;;;;;;7367673;19;20042;-66
2024/02/26 03:33:13;;;;;;;81.82;37.22;;;3.70;99.90;;;;;;7367322;19;20497;-64
2024/02/26 03:35:40;;;;;;;85.45;37.80;;;3.80;99.90;;;;;;7368804;19;20041;-66
2024/02/26 03:38:07;;;;;;;81.47;36.45;;;3.70;99.90;;;;;;7368846;19;20048;-65
2024/02/26 03:40:36;;;;;;;77.95;35.90;;;3.90;99.90;;;;;;7368348;19;20028;-63
2024/02/26 03:43:07;;;;;;;79.30;34.92;;;3.90;99.90;;;;;;7365064;19;20048;-65
2024/02/26 03:45:37;;;;;;;85.18;36.25;;;4.00;99.90;;;;;;7353744;19;20702;-65
2024/02/26 03:48:05;;;;;;;79.45;36.22;;;3.90;99.90;;;;;;7375774;19;20031;-63
2024/02/26 03:50:33;;;;;;;76.53;37.40;;;4.00;99.90;;;;;;7367644;19;20018;-63
2024/02/26 03:53:03;;;;;;;86.22;36.88;;;4.00;99.90;;;;;;7357014;19;20018;-63
2024/02/26 03:55:32;;;;;;;78.53;37.40;;;4.10;99.90;;;;;;7367389;19;20059;-63
2024/02/26 03:58:00;;;;;;;81.03;36.72;;;4.10;99.90;;;;;;7373683;19;20015;-64
2024/02/26 04:00:30;;;;;;;78.38;37.50;;;4.10;99.90;;;;;;7375548;19;20023;-65
2024/02/26 04:02:57;;;;;;;75.70;37.13;;;4.10;99.90;;;;;;7374189;19;20879;-65
2024/02/26 04:05:24;;;;;;;75.00;32.92;;;4.10;99.90;;;;;;7374617;19;20018;-65
2024/02/26 04:07:53;;;;;;;78.53;35.50;;;4.10;99.90;;;;;;7370164;19;20592;-66
2024/02/26 04:10:25;;;;;;;75.93;36.92;;;4.10;99.90;;;;;;7371940;19;20022;-67
2024/02/26 04:12:52;;;;;;;73.13;34.83;;;4.10;99.90;;;;;;7371292;19;20011;-68
2024/02/26 04:15:20;;;;;;;73.80;35.88;;;4.10;99.90;;;;;;7373896;19;20041;-65
2024/02/26 04:17:50;;;;;;;68.72;36.03;;;4.20;99.90;;;;;;7360063;19;20020;-65
2024/02/26 04:20:17;;;;;;;73.95;35.75;;;4.20;99.90;;;;;;7374903;19;20021;-63
2024/02/26 04:22:46;;;;;;;70.97;35.83;;;4.20;99.90;;;;;;7369567;19;20022;-64
2024/02/26 04:25:13;;;;;;;76.07;34.97;;;4.10;99.90;;;;;;7369906;19;20043;-66
2024/02/26 04:27:41;;;;;;;66.60;34.35;;;4.20;99.90;;;;;;7368893;19;20022;-64
2024/02/26 04:30:09;;;;;;;72.32;33.60;;;4.20;99.90;;;;;;7364867;19;20105;-64
2024/02/26 04:32:36;;;;;;;73.43;34.42;;;4.30;99.90;;;;;;7370337;19;20125;-64
2024/02/26 04:35:06;;;;;;;68.55;32.80;;;4.30;99.90;;;;;;7364771;19;20025;-65
2024/02/26 04:37:33;;;;;;;68.20;33.55;;;4.30;99.90;;;;;;7371442;19;20085;-65
2024/02/26 04:40:02;;;;;;;59.60;32.78;;;4.40;99.90;;;;;;7367159;19;20010;-64
2024/02/26 04:42:31;;;;;;;60.63;31.02;;;4.30;99.90;;;;;;7367786;19;20037;-65
2024/02/26 04:44:59;;;;;;;59.80;31.77;;;4.40;99.90;;;;;;7372381;19;20018;-65
2024/02/26 04:47:26;;;;;;;55.13;31.55;;;4.40;99.90;;;;;;7371203;19;20049;-66
2024/02/26 04:49:54;;;;;;;53.90;29.73;;;4.40;99.90;;;;;;7368233;19;20042;-65
2024/02/26 04:52:23;;;;;;;54.22;29.17;;;4.40;99.90;;;;;;7364393;19;20033;-64
2024/02/26 04:54:52;;;;;;;48.55;28.85;;;4.40;99.90;;;;;;7370853;19;20014;-66
2024/02/26 04:57:21;;;;;;;43.58;26.83;;;4.40;99.90;;;;;;7368086;19;20947;-65
2024/02/26 04:59:48;;;;;;;40.97;24.95;;;4.40;99.90;;;;;;7371652;19;20586;-64
2024/02/26 05:02:16;;;;;;;36.88;23.38;;;4.40;99.90;;;;;;7361547;19;20379;-64
2024/02/26 05:04:43;;;;;;;35.55;23.75;;;4.40;99.90;;;;;;7375301;19;20539;-66
2024/02/26 05:07:12;;;;;;;31.48;22.40;;;4.40;99.90;;;;;;7365602;19;20018;-65
2024/02/26 05:09:41;;;;;;;28.35;20.15;;;4.40;99.90;;;;;;7367758;19;20014;-64
2024/02/26 05:12:09;;;;;;;31.73;21.58;;;4.30;99.90;;;;;;7369671;19;20014;-66
2024/02/26 05:14:36;;;;;;;28.27;19.70;;;4.30;99.90;;;;;;7372016;19;20014;-64
2024/02/26 05:17:04;;;;;;;25.63;18.70;;;4.30;99.90;;;;;;7369658;19;21128;-66
2024/02/26 05:19:34;;;;;;;23.98;16.45;;;4.30;99.90;;;;;;7370127;19;20905;-65
2024/02/26 05:22:05;;;;;;;24.08;16.83;;;4.20;99.90;;;;;;7358321;19;20015;-66
2024/02/26 05:24:32;;;;;;;23.02;16.83;;;4.20;99.90;;;;;;7367767;19;20024;-65
2024/02/26 05:27:00;;;;;;;20.58;15.85;;;4.20;99.90;;;;;;7363944;19;21930;-65
2024/02/26 05:29:27;;;;;;;18.85;14.57;;;4.20;99.90;;;;;;7367094;19;20007;-65
2024/02/26 05:31:56;;;;;;;20.98;15.63;;;4.10;99.90;;;;;;7363558;19;20018;-65
2024/02/26 05:34:25;;;;;;;11.98;9.65;;;4.20;99.90;;;;;;7369283;19;20023;-65
2024/02/26 05:36:52;;;;;;;18.92;13.85;;;4.20;99.90;;;;;;7369590;19;20022;-65
2024/02/26 05:39:20;;;;;;;18.02;13.60;;;4.20;99.90;;;;;;7371267;19;20033;-67
2024/02/26 05:41:49;;;;;;;19.15;13.05;;;4.10;99.90;;;;;;7364009;19;20023;-65
2024/02/26 05:44:16;;;;;;;17.95;13.88;;;4.10;99.90;;;;;;7364644;19;20018;-65
2024/02/26 05:46:44;;;;;;;16.35;13.07;;;4.10;99.90;;;;;;7370292;19;20548;-64
2024/02/26 05:49:11;;;;;;;18.65;13.90;;;4.10;99.90;;;;;;7374287;19;20010;-64
2024/02/26 05:51:39;;;;;;;17.10;12.63;;;4.10;99.90;;;;;;7367922;19;20734;-64
2024/02/26 05:54:08;;;;;;;18.65;13.35;;;4.10;99.90;;;;;;7374582;19;20018;-65
2024/02/26 05:56:35;;;;;;;17.67;13.82;;;4.10;99.90;;;;;;7364057;19;20015;-69
2024/02/26 05:59:02;;;;;;;18.58;13.23;;;4.20;99.90;;;;;;7372401;19;20015;-66
2024/02/26 06:01:30;;;;;;;18.08;12.98;;;4.10;99.90;;;;;;7362319;19;20024;-67
2024/02/26 06:04:05;;;;;;;14.30;12.13;;;4.20;99.90;;;;;;7370951;19;20011;-66
2024/02/26 06:06:36;;;;;;;16.20;11.75;;;4.10;99.90;;;;;;7369329;19;20118;-66
2024/02/26 06:09:05;;;;;;;15.35;11.55;;;4.10;99.90;;;;;;7371349;19;20025;-66
2024/02/26 06:11:32;;;;;;;14.57;10.77;;;4.10;99.90;;;;;;7367802;19;20025;-66
2024/02/26 06:14:00;;;;;;;15.90;10.57;;;4.10;99.90;;;;;;7379334;19;20066;-74
2024/02/26 06:16:27;;;;;;;12.60;10.18;;;4.20;99.90;;;;;;7383134;19;20018;-74
2024/02/26 06:18:56;;;;;;;15.30;10.23;;;4.20;99.90;;;;;;7374107;19;20108;-71
2024/02/26 06:21:23;;;;;;;15.48;11.23;;;4.20;99.90;;;;;;7371780;19;20544;-71
2024/02/26 06:23:51;;;;;;;13.27;10.90;;;4.20;99.90;;;;;;7372018;19;20045;-71
2024/02/26 06:26:18;;;;;;;57.35;38.78;;;4.20;99.90;;;;;;7371023;19;20010;-76
2024/02/26 06:28:46;;;;;;;28.73;21.65;;;4.20;99.90;;;;;;7375813;19;20109;-72
2024/02/26 06:31:13;;;;;;;25.92;19.52;;;4.10;99.90;;;;;;7375415;19;20025;-74
2024/02/26 06:33:41;;;;;;;17.77;12.43;;;4.10;99.90;;;;;;7377641;19;20018;-74
2024/02/26 06:36:08;;;;;;;23.23;15.52;;;4.10;99.90;;;;;;7378692;19;20020;-74
2024/02/26 06:38:35;;;;;;;32.17;22.65;;;4.10;99.90;;;;;;7379489;19;20034;-74
2024/02/26 06:41:03;;;;;;;31.20;22.40;;;4.10;99.90;;;;;;7378584;19;20102;-73
2024/02/26 06:43:30;;;;;;;20.77;16.88;;;4.10;99.90;;;;;;7377542;19;20018;-74
2024/02/26 06:45:57;;;;;;;20.73;16.00;;;4.10;99.90;;;;;;7377922;19;20970;-74
2024/02/26 06:48:24;;;;;;;16.67;11.90;;;4.10;99.90;;;;;;7378246;19;20678;-74
2024/02/26 06:50:51;;;;;;;14.60;11.18;;;4.00;99.90;;;;;;7380664;19;20014;-74
2024/02/26 06:53:18;;;;;;;13.88;9.80;;;4.00;99.90;;;;;;7372167;19;20018;-70
2024/02/26 06:55:44;;;;;;;21.38;17.20;;;4.10;99.90;;;;;;7373251;19;20462;-68
2024/02/26 06:58:14;;;;;;;30.63;23.92;;;4.10;99.90;;;;;;7374640;19;20042;-72
2024/02/26 07:00:41;;;;;;;16.33;12.57;;;4.10;99.90;;;;;;7374855;19;20035;-68
2024/02/26 07:03:07;;;;;;;13.35;11.18;;;4.10;99.90;;;;;;7372355;19;20085;-68
2024/02/26 07:05:37;;;;;;;19.38;14.77;;;4.10;99.90;;;;;;7373358;19;20039;-68
2024/02/26 07:08:23;;;;;;;15.07;11.55;;;4.10;99.90;;;;;;7369667;19;20050;-69
2024/02/26 07:10:51;;;;;;;14.85;12.40;;;4.10;99.90;;;;;;7375027;19;20049;-72
2024/02/26 07:13:18;;;;;;;19.65;15.20;;;4.20;99.90;;;;;;7376339;19;20018;-69
2024/02/26 07:15:48;;;;;;;10.50;8.73;;;4.10;99.90;;;;;;7373803;19;20705;-75
2024/02/26 07:18:15;;;;;;;24.27;20.73;;;4.10;99.90;;;;;;7373540;19;20795;-69
2024/02/26 07:20:42;;;;;;;13.75;9.98;;;4.20;99.90;;;;;;7370119;19;20011;-69
2024/02/26 07:23:09;;;;;;;16.10;11.70;;;4.20;99.90;;;;;;7368695;19;20780;-69
2024/02/26 07:25:35;;;;;;;14.85;11.90;;;4.20;99.90;;;;;;7372824;19;20387;-72
2024/02/26 07:28:02;;;;;;;15.43;12.05;;;4.20;99.90;;;;;;7372389;19;20042;-72
2024/02/26 07:30:29;;;;;;;28.48;19.70;;;4.20;99.90;;;;;;7361991;19;20015;-72
2024/02/26 07:32:56;;;;;;;47.65;36.72;;;4.20;99.90;;;;;;7365215;19;20013;-72
2024/02/26 07:35:23;;;;;;;41.08;29.98;;;4.20;99.90;;;;;;7372188;19;20025;-72
2024/02/26 07:37:52;;;;;;;46.92;34.72;;;4.30;99.90;;;;;;7373371;19;20014;-73
2024/02/26 07:40:22;;;;;;;23.70;18.15;;;4.30;99.90;;;;;;7374162;19;20015;-72
2024/02/26 07:42:51;;;;;;;20.75;16.95;;;4.30;99.90;;;;;;7377786;19;20037;-72
2024/02/26 07:45:20;;;;;;;20.92;16.55;;;4.30;99.90;;;;;;7379080;19;20006;-72
2024/02/26 07:47:48;;;;;;;15.65;11.70;;;4.40;99.90;;;;;;7368942;19;20757;-70
2024/02/26 07:50:15;;;;;;;17.92;13.63;;;4.40;99.90;;;;;;7372310;19;21007;-70
2024/02/26 07:52:42;;;;;;;8.10;6.93;;;4.40;99.90;;;;;;7370368;19;20015;-70
2024/02/26 07:55:11;;;;;;;50.45;39.45;;;4.40;99.90;;;;;;7372726;19;20487;-72
2024/02/26 07:57:42;;;;;;;19.17;15.65;;;4.40;99.90;;;;;;7382777;19;20018;-75
2024/02/26 08:00:11;;;;;;;31.42;24.15;;;4.40;99.90;;;;;;7383189;19;20081;-75
2024/02/26 08:02:38;;;;;;;20.45;15.85;;;4.50;99.90;;;;;;7391066;19;20025;-76
2024/02/26 08:05:06;;;;;;;20.52;15.73;;;4.50;99.90;;;;;;7377764;19;20027;-73
2024/02/26 08:07:33;;;;;;;15.82;11.73;;;4.50;99.90;;;;;;7373648;19;20014;-72
2024/02/26 08:10:00;;;;;;;32.15;24.90;;;4.60;99.90;;;;;;7386869;19;20034;-72
2024/02/26 08:12:28;;;;;;;36.55;26.60;;;4.50;99.90;;;;;;7379917;19;20015;-73
2024/02/26 08:14:56;;;;;;;14.55;11.50;;;4.60;99.90;;;;;;7389414;19;20026;-75
2024/02/26 08:17:24;;;;;;;26.58;22.02;;;4.60;99.90;;;;;;7389706;19;20007;-74
2024/02/26 08:19:51;;;;;;;15.77;11.70;;;4.70;99.90;;;;;;7388963;19;20010;-72
2024/02/26 08:22:21;;;;;;;24.23;17.13;;;4.70;99.90;;;;;;7373803;19;20015;-76
2024/02/26 08:24:49;;;;;;;25.75;19.75;;;4.70;99.90;;;;;;7387144;19;20074;-76
2024/02/26 08:27:16;;;;;;;24.40;18.33;;;4.70;99.90;;;;;;7389050;19;20015;-73
2024/02/26 08:29:43;;;;;;;20.75;15.88;;;4.70;99.90;;;;;;7374565;19;20478;-73
2024/02/26 08:32:12;;;;;;;8.80;7.25;;;4.70;99.90;;;;;;7378654;19;20051;-75
2024/02/26 08:34:40;;;;;;;21.80;15.02;;;4.70;99.90;;;;;;7381255;19;20006;-75
2024/02/26 08:37:07;;;;;;;15.15;12.35;;;4.70;99.90;;;;;;7376220;19;20010;-73
2024/02/26 08:39:38;;;;;;;11.77;8.23;;;4.80;99.90;;;;;;7380947;19;20078;-76
2024/02/26 08:42:08;;;;;;;21.98;17.20;;;4.80;99.90;;;;;;7383230;19;20369;-73
2024/02/26 08:44:36;;;;;;;20.98;15.25;;;4.80;99.90;;;;;;7388838;19;20089;-73
2024/02/26 08:47:07;;;;;;;22.02;17.80;;;4.80;99.90;;;;;;7387208;19;20014;-74
2024/02/26 08:49:36;;;;;;;9.20;8.18;;;4.90;99.90;;;;;;7380178;19;20018;-73
2024/02/26 08:52:04;;;;;;;12.65;10.80;;;4.90;99.90;;;;;;7379547;19;20018;-72
2024/02/26 08:54:33;;;;;;;11.70;10.02;;;4.90;99.90;;;;;;7379286;19;20034;-72
2024/02/26 08:57:00;;;;;;;11.30;9.02;;;5.00;99.90;;;;;;7376333;19;20483;-72
2024/02/26 08:59:27;;;;;;;20.05;15.93;;;5.00;99.90;;;;;;7381376;19;20029;-73
2024/02/26 09:01:55;;;;;;;29.85;23.73;;;5.00;99.90;;;;;;7378495;19;20022;-72
2024/02/26 09:04:24;;;;;;;15.93;12.15;;;5.10;99.90;;;;;;7377111;19;20021;-73
2024/02/26 09:06:52;;;;;;;15.40;12.15;;;5.10;99.90;;;;;;7376824;19;20925;-71
2024/02/26 09:09:19;;;;;;;13.50;8.95;;;5.10;99.90;;;;;;7379706;19;20018;-71
2024/02/26 09:11:46;;;;;;;13.95;11.90;;;5.20;99.90;;;;;;7380756;19;20608;-72
2024/02/26 09:14:14;;;;;;;9.75;8.10;;;5.20;99.90;;;;;;7378073;19;20078;-72
2024/02/26 09:16:42;;;;;;;12.82;10.52;;;5.20;99.90;;;;;;7380877;19;20025;-73
2024/02/26 09:19:09;;;;;;;12.43;10.10;;;5.20;99.90;;;;;;7377157;19;20475;-72
2024/02/26 09:21:45;;;;;;;14.13;11.35;;;5.20;99.90;;;;;;7379351;19;20053;-72
2024/02/26 09:24:12;;;;;;;11.23;9.73;;;5.20;99.90;;;;;;7396080;19;20015;-79
2024/02/26 09:26:40;;;;;;;14.60;12.45;;;5.20;99.90;;;;;;7396254;19;20014;-78
2024/02/26 09:29:08;;;;;;;15.63;12.93;;;5.20;99.90;;;;;;7392210;19;20026;-77
2024/02/26 09:31:41;;;;;;;11.05;9.48;;;5.30;99.90;;;;;;7391669;19;20014;-77
2024/02/26 09:34:08;;;;;;;15.85;13.18;;;5.20;99.90;;;;;;7391293;19;20498;-78
2024/02/26 09:36:37;;;;;;;14.02;11.00;;;5.30;99.90;;;;;;7389372;19;20026;-71
2024/02/26 09:39:03;;;;;;;12.20;9.77;;;5.30;99.90;;;;;;7382959;19;20018;-71
2024/02/26 09:41:31;;;;;;;9.73;7.97;;;5.30;99.90;;;;;;7373863;19;20018;-71
2024/02/26 09:43:59;;;;;;;19.27;15.40;;;5.30;99.90;;;;;;7374879;19;20014;-71
2024/02/26 09:46:26;;;;;;;13.65;11.35;;;5.30;99.90;;;;;;7373828;19;20029;-71
2024/02/26 09:48:53;;;;;;;12.00;9.55;;;5.30;99.90;;;;;;7377699;19;20478;-72
2024/02/26 09:51:26;;;;;;;10.00;8.63;;;5.30;99.90;;;;;;7385487;19;20466;-71
2024/02/26 09:53:53;;;;;;;7.82;7.03;;;5.30;99.90;;;;;;7377254;19;20022;-71
2024/02/26 09:56:21;;;;;;;8.52;6.95;;;5.30;99.90;;;;;;7386814;19;20014;-77
2024/02/26 09:58:53;;;;;;;12.65;10.38;;;5.40;99.90;;;;;;7392236;19;20018;-78
2024/02/26 10:01:24;;;;;;;9.80;8.43;;;5.40;99.90;;;;;;7393357;19;20011;-78
2024/02/26 10:03:56;;;;;;;13.90;10.32;;;5.40;99.90;;;;;;7390039;19;20367;-78
2024/02/26 10:06:29;;;;;;;7.97;6.72;;;5.40;99.90;;;;;;7389718;19;20019;-77
2024/02/26 10:08:58;;;;;;;13.77;11.38;;;5.40;99.90;;;;;;7393014;19;20039;-77
2024/02/26 10:11:26;;;;;;;7.85;6.40;;;5.50;99.90;;;;;;7390899;19;20010;-77
2024/02/26 10:13:56;;;;;;;8.85;7.72;;;5.50;99.90;;;;;;7391479;19;20035;-78
2024/02/26 10:16:28;;;;;;;9.48;8.00;;;5.50;99.90;;;;;;7388423;19;20015;-78
2024/02/26 10:18:55;;;;;;;8.02;6.15;;;5.60;99.90;;;;;;7387442;19;20424;-76
2024/02/26 10:21:23;;;;;;;11.95;8.45;;;5.60;99.90;;;;;;7389072;19;20014;-76
2024/02/26 10:23:52;;;;;;;11.48;9.27;;;5.60;99.90;;;;;;7387988;19;20012;-77
2024/02/26 10:26:21;;;;;;;10.80;9.30;;;5.60;99.90;;;;;;7389171;19;20078;-77
2024/02/26 10:29:01;;;;;;;10.90;8.50;;;5.70;99.90;;;;;;7386251;19;20033;-77
2024/02/26 10:31:29;;;;;;;9.52;7.90;;;5.70;99.90;;;;;;7392829;19;20030;-77
2024/02/26 10:34:04;;;;;;;11.82;9.63;;;5.70;99.90;;;;;;7393324;19;20577;-77
2024/02/26 10:36:37;;;;;;;12.95;10.32;;;5.70;99.90;;;;;;7391793;19;20015;-78
2024/02/26 10:39:05;;;;;;;10.48;7.90;;;5.80;99.90;;;;;;7391869;19;20022;-77
2024/02/26 10:41:35;;;;;;;10.27;8.40;;;5.80;99.90;;;;;;7392090;19;20018;-77
2024/02/26 10:44:02;;;;;;;13.18;8.88;;;5.80;99.90;;;;;;7395613;19;20082;-78
2024/02/26 10:46:29;;;;;;;10.60;7.50;;;5.80;99.90;;;;;;7392488;19;20026;-77
2024/02/26 10:48:56;;;;;;;8.38;7.30;;;5.90;99.90;;;;;;7394002;19;20026;-77
2024/02/26 10:51:28;;;;;;;12.65;7.63;;;6.00;99.90;;;;;;7393177;19;20019;-77
2024/02/26 10:53:58;;;;;;;8.98;7.65;;;6.00;99.90;;;;;;7382644;19;20010;-71
2024/02/26 10:56:29;;;;;;;9.23;7.38;;;6.10;99.90;;;;;;7374144;19;20021;-71
2024/02/26 10:58:57;;;;;;;8.88;6.82;;;6.10;99.90;;;;;;7374565;19;20506;-71
2024/02/26 11:01:29;;;;;;;9.68;7.53;;;6.20;99.90;;;;;;7373180;19;20014;-71
2024/02/26 11:03:56;;;;;;;8.82;7.63;;;6.20;99.90;;;;;;7373348;19;20042;-71
2024/02/26 11:06:25;;;;;;;8.48;7.30;;;6.20;99.90;;;;;;7388524;19;20014;-77
2024/02/26 11:08:54;;;;;;;12.23;9.45;;;6.30;99.90;;;;;;7390504;19;20011;-77
2024/02/26 11:11:26;;;;;;;37.65;29.77;;;6.50;99.90;;;;;;7380552;19;20019;-67
2024/02/26 11:13:54;;;;;;;39.92;28.73;;;6.50;99.90;;;;;;7384251;19;20026;-77
2024/02/26 11:16:22;;;;;;;30.70;22.02;;;6.50;99.90;;;;;;7387757;19;20022;-78
2024/02/26 11:18:49;;;;;;;11.00;9.57;;;6.50;99.90;;;;;;7380733;19;20879;-72
2024/02/26 11:21:23;;;;;;;13.02;10.60;;;6.50;99.90;;;;;;7369292;19;20050;-72
2024/02/26 11:23:51;;;;;;;15.45;12.52;;;6.60;99.90;;;;;;7373912;19;20437;-72
2024/02/26 11:26:19;;;;;;;15.13;11.52;;;6.60;99.90;;;;;;7373443;19;20014;-73
2024/02/26 11:28:47;;;;;;;15.05;12.23;;;6.60;99.90;;;;;;7372484;19;20026;-73
2024/02/26 11:31:13;;;;;;;9.80;8.02;;;6.60;99.90;;;;;;7373509;19;20014;-72
2024/02/26 11:33:40;;;;;;;14.98;11.80;;;6.70;99.90;;;;;;7382095;19;20022;-80
2024/02/26 11:36:11;;;;;;;17.98;14.07;;;6.70;99.90;;;;;;7390569;19;20055;-79
2024/02/26 11:38:38;;;;;;;22.02;16.95;;;6.70;99.90;;;;;;7390401;19;20014;-79
2024/02/26 11:41:06;;;;;;;12.57;10.43;;;6.70;99.90;;;;;;7391622;19;20014;-80
2024/02/26 11:44:03;;;;;;;9.20;7.68;;;6.60;99.90;;;;;;7392519;19;20014;-78
2024/02/26 11:46:38;;;;;;;15.15;11.23;;;6.70;99.90;;;;;;7382894;19;21865;-72
2024/02/26 11:49:30;;;;;;;10.80;8.80;;;6.80;99.90;;;;;;7376071;19;20030;-72
2024/02/26 11:52:01;;;;;;;;;;;6.80;99.90;;;;;;7379415;19;20014;-72
2024/02/26 11:55:00;;;;;;;15.13;12.80;;;6.70;99.90;;;;;;7382397;19;19936;-75
2024/02/26 11:57:39;;;;;;;21.17;15.23;;;6.80;99.90;;;;;;7370738;19;20094;-72
2024/02/26 12:00:06;;;;;;;12.88;10.07;;;6.80;99.90;;;;;;7373842;19;20420;-73
2024/02/26 12:02:47;;;;;;;17.65;12.73;;;6.80;99.90;;;;;;7376061;19;20014;-73
2024/02/26 12:05:23;;;;;;;14.98;12.13;;;6.80;99.90;;;;;;7385806;19;20018;-78
2024/02/26 12:08:00;;;;;;;11.77;9.20;;;6.80;99.90;;;;;;7379516;19;20019;-73
2024/02/26 12:10:35;;;;;;;21.33;13.75;;;6.70;99.90;;;;;;7375230;19;20019;-72
2024/02/26 12:13:13;;;;;;;14.73;11.02;;;6.80;99.90;;;;;;7374826;19;20665;-72
2024/02/26 12:15:43;;;;;;;20.02;15.25;;;6.70;99.90;;;;;;7374925;19;20006;-73
2024/02/26 12:18:17;;;;;;;19.52;15.30;;;6.70;99.90;;;;;;7379923;19;20010;-74
2024/02/26 12:20:45;;;;;;;10.70;7.22;;;6.70;99.90;;;;;;7393981;19;20014;-80
2024/02/26 12:23:19;;;;;;;13.20;9.60;;;6.70;99.90;;;;;;7396308;19;20007;-81
2024/02/26 12:25:48;;;;;;;8.65;6.20;;;6.70;99.90;;;;;;7389328;19;20017;-72
2024/02/26 12:28:15;;;;;;;9.20;7.00;;;6.70;99.90;;;;;;7383277;19;20505;-78
2024/02/26 12:30:43;;;;;;;43.55;32.67;;;6.70;99.90;;;;;;7384315;19;20047;-73
2024/02/26 12:33:13;;;;;;;10.00;7.90;;;6.70;99.90;;;;;;7382509;19;20010;-72
2024/02/26 12:35:40;;;;;;;16.08;9.50;;;6.70;99.90;;;;;;7383880;19;20026;-73
2024/02/26 12:38:08;;;;;;;37.05;27.85;;;6.70;99.90;;;;;;7384849;19;20010;-73
2024/02/26 12:40:35;;;;;;;25.13;18.15;;;6.60;99.90;;;;;;7381903;19;20062;-73
2024/02/26 12:43:02;;;;;;;29.52;21.52;;;6.60;99.90;;;;;;7389886;19;20007;-79
2024/02/26 12:45:31;;;;;;;10.00;7.80;;;6.60;99.90;;;;;;7382992;19;20014;-73
2024/02/26 12:48:01;;;;;;;19.75;13.20;;;6.60;99.90;;;;;;7380259;19;20019;-72